createdAt,value
2022-11-16T00:00:25.742Z,59.3
2022-11-16T00:01:31.073Z,55.2
2022-11-16T00:02:37.811Z,60.9
2022-11-16T00:03:43.816Z,56.9
2022-11-16T00:04:49.865Z,56.9
2022-11-16T00:05:56.210Z,56.9
2022-11-16T00:07:01.790Z,53.4
2022-11-16T00:08:08.885Z,57.8
2022-11-16T00:09:15.361Z,56.4
2022-11-16T00:10:24.509Z,52.4
2022-11-16T00:11:29.749Z,56.4
2022-11-16T00:12:34.774Z,52.4
2022-11-16T00:13:39.994Z,51.5
2022-11-16T00:14:44.789Z,54.1
2022-11-16T00:15:50.497Z,55
2022-11-16T00:16:55.655Z,53.8
2022-11-16T00:18:00.645Z,54.3
2022-11-16T00:19:05.644Z,54.6
2022-11-16T00:20:11.070Z,53.6
2022-11-16T00:21:16.420Z,54.8
2022-11-16T00:22:22.101Z,56.8
2022-11-16T00:23:27.384Z,55
2022-11-16T00:24:33.201Z,55.9
2022-11-16T00:25:38.528Z,56.6
2022-11-16T00:26:44.796Z,56.6
2022-11-16T00:27:50.241Z,56.6
2022-11-16T00:28:55.525Z,56.6
2022-11-16T00:30:00.982Z,55.2
2022-11-16T00:31:06.773Z,57.6
2022-11-16T00:32:11.470Z,57.6
2022-11-16T00:33:16.877Z,57.6
2022-11-16T00:34:22.530Z,53.6
2022-11-16T00:35:30.192Z,57.9
2022-11-16T00:36:42.892Z,56.3
2022-11-16T00:37:49.600Z,54.3
2022-11-16T00:38:57.265Z,53.3
2022-11-16T00:40:02.545Z,56.2
2022-11-16T00:41:07.882Z,58.5
2022-11-16T00:42:13.411Z,55.4
2022-11-16T00:43:19.369Z,58.2
2022-11-16T00:44:24.348Z,55.4
2022-11-16T00:45:29.709Z,61
2022-11-16T00:46:35.726Z,60.5
2022-11-16T00:47:41.457Z,54.6
2022-11-16T00:48:47.308Z,59.9
2022-11-16T00:49:52.123Z,59.7
2022-11-16T00:50:59.457Z,59.7
2022-11-16T00:52:05.655Z,59.7
2022-11-16T00:53:10.605Z,59.7
2022-11-16T00:54:16.732Z,60.6
2022-11-16T00:55:21.985Z,58.2
2022-11-16T00:56:27.849Z,55.9
2022-11-16T00:57:33.741Z,54.5
2022-11-16T00:58:39.688Z,59.2
2022-11-16T00:59:45.445Z,58.4
2022-11-16T01:00:50.670Z,57.8
2022-11-16T01:01:56.083Z,54.8
2022-11-16T01:03:01.104Z,59
2022-11-16T01:04:07.484Z,55.4
2022-11-16T01:05:12.267Z,55.6
2022-11-16T01:06:17.530Z,58.9
2022-11-16T01:07:24.071Z,59.4
2022-11-16T01:08:34.676Z,56.1
2022-11-16T01:09:39.961Z,57.3
2022-11-16T01:10:45.148Z,54.2
2022-11-16T01:11:49.997Z,51.8
2022-11-16T01:13:00.804Z,54.8
2022-11-16T01:14:06.438Z,53.7
2022-11-16T01:15:12.230Z,57.2
2022-11-16T01:16:19.044Z,57.2
2022-11-16T01:17:26.741Z,57.2
2022-11-16T01:18:35.384Z,57.2
2022-11-16T01:19:40.119Z,57.2
2022-11-16T01:20:45.742Z,57.2
2022-11-16T01:21:53.592Z,56.5
2022-11-16T01:22:59.935Z,52.3
2022-11-16T01:24:05.651Z,52.2
2022-11-16T01:25:11.062Z,53.1
2022-11-16T01:26:16.060Z,54.1
2022-11-16T01:27:20.805Z,52.6
2022-11-16T01:28:25.893Z,52.6
2022-11-16T01:29:30.308Z,52.6
2022-11-16T01:30:35.056Z,55.2
2022-11-16T01:31:40.526Z,51.5
2022-11-16T01:32:45.364Z,51.5
2022-11-16T01:33:50.460Z,51.5
2022-11-16T01:34:55.421Z,51.5
2022-11-16T01:36:00.607Z,51.5
2022-11-16T01:37:05.568Z,54.3
2022-11-16T01:38:10.337Z,51.2
2022-11-16T01:39:15.255Z,50.7
2022-11-16T01:40:20.000Z,50.7
2022-11-16T01:41:24.464Z,51.9
2022-11-16T01:42:29.096Z,52.3
2022-11-16T01:43:33.829Z,54.6
2022-11-16T01:44:49.045Z,52.8
2022-11-16T01:45:59.761Z,54.2
2022-11-16T01:47:05.262Z,56.1
2022-11-16T01:48:10.340Z,52.3
2022-11-16T01:49:14.956Z,52
2022-11-16T01:50:19.421Z,52
2022-11-16T01:51:24.365Z,53.4
2022-11-16T01:52:29.356Z,52
2022-11-16T01:53:34.573Z,55.8
2022-11-16T01:54:39.508Z,55.8
2022-11-16T01:55:44.396Z,55.8
2022-11-16T01:56:49.108Z,55.8
2022-11-16T01:57:53.986Z,55.8
2022-11-16T01:58:58.736Z,55.8
2022-11-16T02:00:03.409Z,55.8
2022-11-16T02:01:08.397Z,55.8
2022-11-16T02:02:13.192Z,51.8
2022-11-16T02:03:18.222Z,50.6
2022-11-16T02:04:23.323Z,50.3
2022-11-16T02:05:28.254Z,50
2022-11-16T02:06:40.500Z,51.7
2022-11-16T02:07:45.245Z,52.6
2022-11-16T02:08:55.327Z,52.6
2022-11-16T02:10:15.128Z,52.6
2022-11-16T02:11:20.065Z,52.6
2022-11-16T02:12:30.190Z,53.1
2022-11-16T02:13:40.855Z,48.2
2022-11-16T02:14:50.420Z,48.8
2022-11-16T02:15:59.850Z,50.4
2022-11-16T02:17:14.704Z,53.4
2022-11-16T02:18:21.984Z,53.3
2022-11-16T02:19:36.761Z,50.8
2022-11-16T02:20:47.564Z,49.7
2022-11-16T02:22:00.769Z,50.7
2022-11-16T02:23:16.010Z,53.4
2022-11-16T02:24:25.905Z,50.4
2022-11-16T02:25:41.039Z,57.2
2022-11-16T02:26:50.604Z,58.1
2022-11-16T02:28:00.468Z,58.3
2022-11-16T02:29:15.476Z,57.4
2022-11-16T02:30:25.584Z,60.1
2022-11-16T02:31:30.788Z,58.7
2022-11-16T02:32:35.638Z,56.2
2022-11-16T02:33:50.504Z,61.9
2022-11-16T02:34:55.540Z,56
2022-11-16T02:36:10.673Z,53.9
2022-11-16T02:37:15.432Z,56.2
2022-11-16T02:38:20.016Z,55.4
2022-11-16T02:39:24.376Z,57.5
2022-11-16T02:40:28.976Z,57
2022-11-16T02:41:33.600Z,56.8
2022-11-16T02:42:38.156Z,63.9
2022-11-16T02:43:43.064Z,57.5
2022-11-16T02:44:47.775Z,56
2022-11-16T02:45:52.495Z,56
2022-11-16T02:46:56.995Z,56
2022-11-16T02:48:05.043Z,56
2022-11-16T02:49:09.716Z,57.7
2022-11-16T02:50:14.727Z,55.2
2022-11-16T02:51:19.507Z,55.2
2022-11-16T02:52:24.008Z,57.1
2022-11-16T02:53:28.836Z,58.4
2022-11-16T02:54:33.391Z,58.4
2022-11-16T02:55:38.078Z,58.4
2022-11-16T02:56:42.696Z,58.4
2022-11-16T02:57:57.691Z,57.6
2022-11-16T02:59:02.577Z,62.5
2022-11-16T03:00:07.451Z,62.2
2022-11-16T03:01:17.661Z,61.6
2022-11-16T03:02:22.664Z,59.8
2022-11-16T03:03:33.679Z,62.2
2022-11-16T03:04:38.695Z,56.8
2022-11-16T03:05:48.276Z,56.8
2022-11-16T03:06:57.954Z,53
2022-11-16T03:08:02.651Z,59.3
2022-11-16T03:09:10.513Z,58.1
2022-11-16T03:10:15.603Z,59.7
2022-11-16T03:11:25.670Z,57
2022-11-16T03:12:36.074Z,58.3
2022-11-16T03:13:40.845Z,55.6
2022-11-16T03:14:45.439Z,54.6
2022-11-16T03:15:54.903Z,55.7
2022-11-16T03:17:00.359Z,57.4
2022-11-16T03:18:05.051Z,59.1
2022-11-16T03:19:09.747Z,51.8
2022-11-16T03:20:14.822Z,51.8
2022-11-16T03:21:22.812Z,51.8
2022-11-16T03:22:37.872Z,47.6
2022-11-16T03:23:49.012Z,47.6
2022-11-16T03:24:53.528Z,49.3
2022-11-16T03:25:58.080Z,47
2022-11-16T03:27:02.998Z,47
2022-11-16T03:28:17.896Z,48.2
2022-11-16T03:29:22.672Z,46.6
2022-11-16T03:30:27.588Z,42
2022-11-16T03:31:32.024Z,44.1
2022-11-16T03:32:36.667Z,43.3
2022-11-16T03:33:46.128Z,43.7
2022-11-16T03:34:50.947Z,40.6
2022-11-16T03:35:55.723Z,47.2
2022-11-16T03:37:02.931Z,41.6
2022-11-16T03:38:07.560Z,41.1
2022-11-16T03:39:12.607Z,38.8
2022-11-16T03:40:17.120Z,40.1
2022-11-16T03:41:21.551Z,41.7
2022-11-16T03:42:26.389Z,42.1
2022-11-16T03:43:31.231Z,39.4
2022-11-16T03:44:35.691Z,38
2022-11-16T03:45:40.107Z,36.3
2022-11-16T03:46:45.056Z,34.6
2022-11-16T03:47:49.919Z,35.4
2022-11-16T03:48:54.635Z,38
2022-11-16T03:49:59.300Z,36.2
2022-11-16T03:51:03.668Z,35
2022-11-16T03:52:08.582Z,36.1
2022-11-16T03:53:13.082Z,36.4
2022-11-16T03:54:17.789Z,35.4
2022-11-16T03:55:22.503Z,35.4
2022-11-16T03:56:27.525Z,35.4
2022-11-16T03:57:32.198Z,35.4
2022-11-16T03:58:37.368Z,38.3
2022-11-16T03:59:42.283Z,38.1
2022-11-16T04:00:47.984Z,38.4
2022-11-16T04:01:53.032Z,36.8
2022-11-16T04:02:57.923Z,40.2
2022-11-16T04:04:02.755Z,37.2
2022-11-16T04:05:07.771Z,37.2
2022-11-16T04:06:18.338Z,38.7
2022-11-16T04:07:27.943Z,39.4
2022-11-16T04:08:37.530Z,41.3
2022-11-16T04:09:47.195Z,41.3
2022-11-16T04:10:56.919Z,43.2
2022-11-16T04:12:06.627Z,40.7
2022-11-16T04:13:16.863Z,42.3
2022-11-16T04:14:29.734Z,43.4
2022-11-16T04:15:39.815Z,43.3
2022-11-16T04:16:49.422Z,45.4
2022-11-16T04:17:58.926Z,41
2022-11-16T04:19:08.762Z,38.5
2022-11-16T04:20:19.382Z,37
2022-11-16T04:21:29.307Z,36.6
2022-11-16T04:22:38.950Z,35.4
2022-11-16T04:23:53.555Z,35.1
2022-11-16T04:25:03.264Z,35
2022-11-16T04:26:11.258Z,32.5
2022-11-16T04:27:16.111Z,33
2022-11-16T04:28:25.995Z,32.4
2022-11-16T04:29:30.331Z,32.4
2022-11-16T04:30:35.495Z,32.4
2022-11-16T04:31:50.855Z,32
2022-11-16T04:33:01.022Z,32
2022-11-16T04:34:11.141Z,32.6
2022-11-16T04:35:21.114Z,34
2022-11-16T04:36:30.967Z,34
2022-11-16T04:37:40.904Z,34
2022-11-16T04:38:50.641Z,34
2022-11-16T04:39:55.444Z,33.2
2022-11-16T04:41:00.418Z,31.6
2022-11-16T04:42:04.879Z,31.6
2022-11-16T04:43:16.452Z,31.6
2022-11-16T04:44:23.734Z,31.6
2022-11-16T04:45:26.216Z,31.6
2022-11-16T04:46:36.458Z,31.6
2022-11-16T04:47:46.493Z,31.6
2022-11-16T04:48:51.427Z,31.6
2022-11-16T04:49:56.183Z,31.6
2022-11-16T04:51:00.867Z,37.1
2022-11-16T04:52:06.129Z,36.2
2022-11-16T04:53:10.971Z,38.2
2022-11-16T04:54:16.035Z,37.7
2022-11-16T04:55:20.474Z,35.8
2022-11-16T04:56:25.131Z,38.1
2022-11-16T04:57:29.747Z,38.1
2022-11-16T04:58:34.935Z,38.1
2022-11-16T04:59:39.281Z,38.1
2022-11-16T05:00:44.132Z,38.1
2022-11-16T05:01:48.579Z,28.9
2022-11-16T05:03:01.457Z,26.5
2022-11-16T05:04:03.592Z,26.5
2022-11-16T05:05:08.624Z,26.5
2022-11-16T05:06:13.427Z,26.5
2022-11-16T05:07:18.149Z,27.3
2022-11-16T05:08:23.004Z,29
2022-11-16T05:09:27.755Z,26.4
2022-11-16T05:10:32.663Z,29.8
2022-11-16T05:11:37.109Z,33.3
2022-11-16T05:12:41.765Z,27.8
2022-11-16T05:13:46.703Z,30.3
2022-11-16T05:14:51.398Z,31.8
2022-11-16T05:15:56.133Z,32.5
2022-11-16T05:17:00.861Z,34
2022-11-16T05:18:05.956Z,40.2
2022-11-16T05:19:10.460Z,44.5
2022-11-16T05:20:20.296Z,47.4
2022-11-16T05:21:30.176Z,47.8
2022-11-16T05:22:34.891Z,48
2022-11-16T05:23:40.031Z,48.2
2022-11-16T05:24:50.176Z,40.5
2022-11-16T05:25:55.200Z,31.1
2022-11-16T05:27:00.248Z,29.7
2022-11-16T05:28:05.328Z,26.8
2022-11-16T05:29:10.263Z,27.8
2022-11-16T05:30:15.188Z,26
2022-11-16T05:31:20.832Z,25.8
2022-11-16T05:32:26.199Z,27.1
2022-11-16T05:33:31.948Z,28.3
2022-11-16T05:34:37.320Z,29.6
2022-11-16T05:35:42.549Z,36.8
2022-11-16T05:36:47.653Z,36.2
2022-11-16T05:37:53.812Z,36.1
2022-11-16T05:38:58.488Z,39
2022-11-16T05:40:03.727Z,43.2
2022-11-16T05:41:09.105Z,43.9
2022-11-16T05:42:13.905Z,37.9
2022-11-16T05:43:18.579Z,57.1
2022-11-16T05:44:23.350Z,71.6
2022-11-16T05:45:28.159Z,53.1
2022-11-16T05:46:32.904Z,59.9
2022-11-16T05:47:37.480Z,59.9
2022-11-16T05:48:41.788Z,59.9
2022-11-16T05:49:46.772Z,59.9
2022-11-16T05:50:51.688Z,59.9
2022-11-16T05:52:00.427Z,59.9
2022-11-16T05:53:04.888Z,59.9
2022-11-16T05:54:09.616Z,59.3
2022-11-16T05:55:14.623Z,51.1
2022-11-16T05:56:19.443Z,47.3
2022-11-16T05:57:23.931Z,47.3
2022-11-16T05:58:28.557Z,47.3
2022-11-16T05:59:32.980Z,47.3
2022-11-16T06:00:37.565Z,33.4
2022-11-16T06:01:42.124Z,30.9
2022-11-16T06:02:46.539Z,31.9
2022-11-16T06:03:51.296Z,33.3
2022-11-16T06:04:56.084Z,32.5
2022-11-16T06:06:01.176Z,33.6
2022-11-16T06:07:06.213Z,32.8
2022-11-16T06:08:17.577Z,33.1
2022-11-16T06:09:25.552Z,33.3
2022-11-16T06:10:30.199Z,31.2
2022-11-16T06:11:36.180Z,34.2
2022-11-16T06:12:39.243Z,32.8
2022-11-16T06:13:43.968Z,34.3
2022-11-16T06:14:48.836Z,33.8
2022-11-16T06:15:54.804Z,34.4
2022-11-16T06:16:58.620Z,36.2
2022-11-16T06:18:03.149Z,35
2022-11-16T06:19:07.852Z,35.7
2022-11-16T06:20:12.287Z,37.4
2022-11-16T06:21:16.881Z,37.7
2022-11-16T06:22:21.604Z,36.7
2022-11-16T06:23:26.157Z,38.2
2022-11-16T06:24:31.325Z,37.4
2022-11-16T06:25:35.785Z,41.9
2022-11-16T06:26:40.316Z,37.3
2022-11-16T06:27:45.007Z,39.7
2022-11-16T06:28:49.577Z,37.1
2022-11-16T06:29:54.321Z,40
2022-11-16T06:30:59.831Z,37.3
2022-11-16T06:32:03.777Z,36.2
2022-11-16T06:33:08.477Z,37.2
2022-11-16T06:34:12.961Z,37.3
2022-11-16T06:35:17.568Z,41.8
2022-11-16T06:36:22.532Z,39.2
2022-11-16T06:37:27.556Z,37.8
2022-11-16T06:38:32.623Z,39.1
2022-11-16T06:39:36.550Z,39.3
2022-11-16T06:40:41.312Z,40.3
2022-11-16T06:41:46.126Z,39.3
2022-11-16T06:42:51.147Z,35.9
2022-11-16T06:43:55.928Z,35.8
2022-11-16T06:45:00.536Z,36.6
2022-11-16T06:46:05.505Z,36.6
2022-11-16T06:47:09.640Z,37
2022-11-16T06:48:14.651Z,37.7
2022-11-16T06:49:19.255Z,36.9
2022-11-16T06:50:24.065Z,39.3
2022-11-16T06:51:28.975Z,40.2
2022-11-16T06:52:33.791Z,36.8
2022-11-16T06:53:38.511Z,38.2
2022-11-16T06:54:43.682Z,34.8
2022-11-16T06:55:48.488Z,36.6
2022-11-16T06:56:53.084Z,36.7
2022-11-16T06:57:57.705Z,36.3
2022-11-16T06:59:02.278Z,34.6
2022-11-16T07:00:07.080Z,33.5
2022-11-16T07:01:12.512Z,33.7
2022-11-16T07:02:16.676Z,37.4
2022-11-16T07:03:21.172Z,38.2
2022-11-16T07:04:25.744Z,38.3
2022-11-16T07:05:30.452Z,37.3
2022-11-16T07:06:35.179Z,41
2022-11-16T07:07:39.961Z,38
2022-11-16T07:08:44.799Z,36.5
2022-11-16T07:09:49.667Z,37
2022-11-16T07:10:54.496Z,38.1
2022-11-16T07:11:59.173Z,38.6
2022-11-16T07:13:04.111Z,40.2
2022-11-16T07:14:08.621Z,38.9
2022-11-16T07:15:13.183Z,40.8
2022-11-16T07:16:17.770Z,42.1
2022-11-16T07:17:22.537Z,40.8
2022-11-16T07:18:27.532Z,47.1
2022-11-16T07:19:37.843Z,43.8
2022-11-16T07:20:42.327Z,40.7
2022-11-16T07:21:46.832Z,45.4
2022-11-16T07:22:51.802Z,43.7
2022-11-16T07:23:56.628Z,42.4
2022-11-16T07:25:01.345Z,42.3
2022-11-16T07:26:06.396Z,42.2
2022-11-16T07:27:11.441Z,44.4
2022-11-16T07:28:15.928Z,44.4
2022-11-16T07:29:20.668Z,44.7
2022-11-16T07:30:25.331Z,47
2022-11-16T07:31:30.083Z,46.4
2022-11-16T07:32:34.564Z,46.4
2022-11-16T07:33:39.258Z,43.6
2022-11-16T07:34:43.808Z,43.5
2022-11-16T07:35:48.191Z,46.3
2022-11-16T07:36:52.924Z,44.4
2022-11-16T07:37:57.356Z,48.1
2022-11-16T07:39:02.104Z,43.6
2022-11-16T07:40:06.996Z,41.2
2022-11-16T07:41:12.184Z,44.2
2022-11-16T07:42:16.628Z,41.9
2022-11-16T07:43:21.767Z,45.2
2022-11-16T07:44:26.655Z,44.4
2022-11-16T07:45:31.784Z,42.7
2022-11-16T07:46:46.347Z,42.5
2022-11-16T07:47:41.457Z,44.4
2022-11-16T07:48:46.526Z,46.8
2022-11-16T07:49:51.548Z,45
2022-11-16T07:50:56.739Z,45.3
2022-11-16T07:52:04.159Z,45.9
2022-11-16T07:53:09.275Z,48.3
2022-11-16T07:54:14.155Z,46.5
2022-11-16T07:55:19.086Z,45.4
2022-11-16T07:56:23.523Z,50.3
2022-11-16T07:57:28.135Z,45.4
2022-11-16T07:58:33.268Z,46.3
2022-11-16T07:59:37.824Z,47
2022-11-16T08:00:42.463Z,48.3
2022-11-16T08:01:47.160Z,45
2022-11-16T08:02:51.496Z,46.9
2022-11-16T08:03:56.077Z,45.5
2022-11-16T08:05:00.743Z,47.2
2022-11-16T08:06:05.868Z,46.3
2022-11-16T08:07:13.355Z,46.6
2022-11-16T08:08:18.556Z,49.8
2022-11-16T08:09:23.181Z,46.8
2022-11-16T08:10:28.009Z,43.3
2022-11-16T08:11:32.995Z,46.1
2022-11-16T08:12:37.239Z,45.6
2022-11-16T08:13:41.818Z,47.3
2022-11-16T08:14:46.689Z,45.3
2022-11-16T08:15:51.548Z,49.8
2022-11-16T08:16:56.401Z,49.5
2022-11-16T08:18:00.669Z,50
2022-11-16T08:19:05.591Z,51.2
2022-11-16T08:20:09.996Z,50.3
2022-11-16T08:21:14.471Z,52.4
2022-11-16T08:22:19.159Z,51.4
2022-11-16T08:23:24.152Z,49.5
2022-11-16T08:24:28.915Z,49.2
2022-11-16T08:25:33.353Z,51.1
2022-11-16T08:26:38.110Z,53.5
2022-11-16T08:27:43.015Z,45.3
2022-11-16T08:28:48.170Z,46.8
2022-11-16T08:29:53.069Z,45.9
2022-11-16T08:30:58.101Z,46.9
2022-11-16T08:32:02.622Z,47.3
2022-11-16T08:33:06.974Z,47.2
2022-11-16T08:34:11.640Z,54.9
2022-11-16T08:35:16.285Z,52.3
2022-11-16T08:36:21.075Z,49
2022-11-16T08:37:25.641Z,51.9
2022-11-16T08:38:30.317Z,51
2022-11-16T08:39:34.763Z,48.6
2022-11-16T08:40:39.376Z,46.3
2022-11-16T08:41:43.878Z,49.4
2022-11-16T08:42:48.700Z,45.5
2022-11-16T08:43:53.581Z,50.3
2022-11-16T08:44:58.243Z,47.3
2022-11-16T08:46:02.848Z,47
2022-11-16T08:47:07.689Z,43.5
2022-11-16T08:48:12.555Z,46.1
2022-11-16T08:49:17.074Z,41.8
2022-11-16T08:50:21.632Z,49.1
2022-11-16T08:51:26.363Z,42.6
2022-11-16T08:52:31.091Z,41.9
2022-11-16T08:53:36.155Z,45.7
2022-11-16T08:54:40.792Z,49.4
2022-11-16T08:55:45.820Z,42.6
2022-11-16T08:56:50.420Z,45.7
2022-11-16T08:57:55.210Z,45.9
2022-11-16T08:58:59.872Z,43.9
2022-11-16T09:00:04.290Z,41.3
2022-11-16T09:01:09.477Z,40.9
2022-11-16T09:02:14.650Z,45.6
2022-11-16T09:03:19.155Z,43.1
2022-11-16T09:04:23.943Z,45.8
2022-11-16T09:05:28.407Z,43.6
2022-11-16T09:06:33.011Z,41.3
2022-11-16T09:07:37.554Z,44.3
2022-11-16T09:08:42.078Z,45.9
2022-11-16T09:09:47.047Z,41.7
2022-11-16T09:10:51.994Z,48.6
2022-11-16T09:11:56.608Z,47.3
2022-11-16T09:13:01.350Z,47.5
2022-11-16T09:14:06.183Z,48.3
2022-11-16T09:15:10.861Z,47.7
2022-11-16T09:16:15.119Z,51.5
2022-11-16T09:17:23.044Z,48.1
2022-11-16T09:18:24.586Z,50
2022-11-16T09:19:29.139Z,48.7
2022-11-16T09:20:33.813Z,48.9
2022-11-16T09:21:38.327Z,50.2
2022-11-16T09:22:43.026Z,47.4
2022-11-16T09:23:47.546Z,53.4
2022-11-16T09:24:51.967Z,49.1
2022-11-16T09:25:57.189Z,47.9
2022-11-16T09:27:01.573Z,44.2
2022-11-16T09:28:06.076Z,45.1
2022-11-16T09:29:10.783Z,47.3
2022-11-16T09:30:15.471Z,47.8
2022-11-16T09:31:23.274Z,45.4
2022-11-16T09:32:24.632Z,45.3
2022-11-16T09:33:29.378Z,45.1
2022-11-16T09:34:33.846Z,45.2
2022-11-16T09:35:38.482Z,45.3
2022-11-16T09:36:43.179Z,46
2022-11-16T09:37:48.455Z,49
2022-11-16T09:39:19.347Z,50.7
2022-11-16T09:39:57.694Z,46.3
2022-11-16T09:41:02.356Z,44.5
2022-11-16T09:42:09.903Z,44
2022-11-16T09:43:24.966Z,40.6
2022-11-16T09:44:37.522Z,42.5
2022-11-16T09:45:45.097Z,43.5
2022-11-16T09:47:00.010Z,45.6
2022-11-16T09:48:05.660Z,41.1
2022-11-16T09:49:17.083Z,41.3
2022-11-16T09:50:20.930Z,40.8
2022-11-16T09:51:28.675Z,43.6
2022-11-16T09:52:33.507Z,41.3
2022-11-16T09:53:38.553Z,41.5
2022-11-16T09:54:42.798Z,39.3
2022-11-16T09:55:47.728Z,36.7
2022-11-16T09:56:55.111Z,36.5
2022-11-16T09:57:59.547Z,36.3
2022-11-16T09:59:04.373Z,32.1
2022-11-16T10:00:09.630Z,34.7
2022-11-16T10:01:17.661Z,31
2022-11-16T10:02:27.145Z,31.3
2022-11-16T10:03:32.241Z,31
2022-11-16T10:04:37.045Z,30.4
2022-11-16T10:05:47.361Z,28.7
2022-11-16T10:06:55.480Z,29.9
2022-11-16T10:08:00.269Z,27.7
2022-11-16T10:09:12.834Z,27.3
2022-11-16T10:10:17.753Z,24.5
2022-11-16T10:11:25.364Z,26.4
2022-11-16T10:12:35.012Z,25.8
2022-11-16T10:13:44.644Z,26.3
2022-11-16T10:14:54.334Z,26.9
2022-11-16T10:16:07.675Z,23.2
2022-11-16T10:17:17.571Z,23.9
2022-11-16T10:18:30.847Z,23.2
2022-11-16T10:19:39.157Z,21.4
2022-11-16T10:20:48.750Z,21.5
2022-11-16T10:21:58.442Z,21
2022-11-16T10:23:08.239Z,22.3
2022-11-16T10:24:17.734Z,19.7
2022-11-16T10:25:30.278Z,21.2
2022-11-16T10:26:43.219Z,19.7
2022-11-16T10:27:53.030Z,22
2022-11-16T10:29:03.467Z,21.3
2022-11-16T10:30:19.150Z,19.8
2022-11-16T10:31:24.251Z,19.6
2022-11-16T10:32:34.294Z,20.5
2022-11-16T10:33:41.376Z,22
2022-11-16T10:34:46.290Z,23.1
2022-11-16T10:35:58.730Z,21.3
2022-11-16T10:37:09.694Z,23.1
2022-11-16T10:38:17.944Z,22.9
2022-11-16T10:39:25.773Z,26.7
2022-11-16T10:40:30.303Z,22.7
2022-11-16T10:41:37.427Z,23.1
2022-11-16T10:42:44.465Z,24.1
2022-11-16T10:43:54.235Z,24.4
2022-11-16T10:44:59.155Z,23.9
2022-11-16T10:46:11.991Z,24.4
2022-11-16T10:47:27.091Z,22.5
2022-11-16T10:48:37.127Z,24.7
2022-11-16T10:49:47.756Z,24.4
2022-11-16T10:50:52.649Z,24.1
2022-11-16T10:51:56.871Z,26.7
2022-11-16T10:53:01.527Z,27
2022-11-16T10:54:06.018Z,23.8
2022-11-16T10:55:13.911Z,25.6
2022-11-16T10:56:18.254Z,26.5
2022-11-16T10:57:27.991Z,25.8
2022-11-16T10:58:42.544Z,26.4
2022-11-16T10:59:57.578Z,25.1
2022-11-16T11:01:02.405Z,27
2022-11-16T11:02:06.595Z,27.4
2022-11-16T11:03:21.904Z,29.6
2022-11-16T11:04:31.710Z,29.4
2022-11-16T11:05:36.347Z,28.2
2022-11-16T11:06:46.446Z,27.8
2022-11-16T11:07:59.536Z,29.7
2022-11-16T11:09:10.767Z,27.3
2022-11-16T11:10:20.815Z,27.2
2022-11-16T11:11:25.251Z,28.6
2022-11-16T11:12:35.186Z,24.5
2022-11-16T11:13:40.291Z,24.1
2022-11-16T11:14:45.332Z,24.5
2022-11-16T11:15:58.575Z,25.9
2022-11-16T11:17:13.705Z,26.9
2022-11-16T11:18:18.374Z,26
2022-11-16T11:19:25.773Z,26.8
2022-11-16T11:20:30.519Z,26.7
2022-11-16T11:21:35.331Z,29.1
2022-11-16T11:22:40.512Z,28.4
2022-11-16T11:23:59.427Z,28.2
2022-11-16T11:25:00.534Z,28.3
2022-11-16T11:26:05.810Z,27.5
2022-11-16T11:27:11.399Z,27.8
2022-11-16T11:28:15.831Z,32.5
2022-11-16T11:29:20.330Z,28.1
2022-11-16T11:30:27.866Z,30.1
2022-11-16T11:31:33.086Z,28.7
2022-11-16T11:32:40.730Z,27.3
2022-11-16T11:33:45.342Z,28.6
2022-11-16T11:35:00.299Z,32.9
2022-11-16T11:36:10.606Z,31.1
2022-11-16T11:37:23.655Z,30
2022-11-16T11:38:34.915Z,29.7
2022-11-16T11:39:39.673Z,30.7
2022-11-16T11:40:44.966Z,31.4
2022-11-16T11:41:54.686Z,30.1
2022-11-16T11:43:02.370Z,29.7
2022-11-16T11:44:06.773Z,31.5
2022-11-16T11:45:14.546Z,34.4
2022-11-16T11:46:19.255Z,34.3
2022-11-16T11:48:34.394Z,32.9
2022-11-16T11:49:41.943Z,32.5
2022-11-16T11:50:46.673Z,33.4
2022-11-16T11:51:54.191Z,35.3
2022-11-16T11:52:59.225Z,37.3
2022-11-16T11:54:14.269Z,36.3
2022-11-16T11:55:24.318Z,38
2022-11-16T11:56:29.292Z,39.9
2022-11-16T11:57:34.057Z,39.2
2022-11-16T11:58:38.668Z,46.1
2022-11-16T11:59:43.424Z,46
2022-11-16T12:00:48.672Z,47.6
2022-11-16T12:01:56.301Z,47.7
2022-11-16T12:03:08.849Z,51.7
2022-11-16T12:04:19.070Z,49.1
2022-11-16T12:05:28.989Z,51.1
2022-11-16T12:06:44.399Z,51.5
2022-11-16T12:07:55.113Z,53.4
2022-11-16T12:09:08.217Z,49
2022-11-16T12:10:22.916Z,50.9
2022-11-16T12:11:32.569Z,44.3
2022-11-16T12:12:42.318Z,46.1
2022-11-16T12:13:51.809Z,45
2022-11-16T12:15:01.617Z,44.9
2022-11-16T12:16:11.389Z,45.6
2022-11-16T12:17:26.164Z,49.2
2022-11-16T12:18:35.932Z,49.2
2022-11-16T12:19:51.229Z,49.8
2022-11-16T12:21:04.005Z,52.5
2022-11-16T12:22:14.064Z,51.9
2022-11-16T12:23:21.844Z,55.7
2022-11-16T12:24:32.702Z,54.1
2022-11-16T12:25:47.696Z,54.5
2022-11-16T12:26:55.416Z,58.2
2022-11-16T12:28:05.817Z,65.1
2022-11-16T12:29:20.900Z,69.2
2022-11-16T12:30:30.648Z,68.6
2022-11-16T12:31:35.195Z,67.1
2022-11-16T12:32:39.813Z,70.8
2022-11-16T12:33:55.039Z,67.9
2022-11-16T12:35:02.717Z,74.6
2022-11-16T12:36:07.977Z,76.4
2022-11-16T12:37:22.902Z,72.8
2022-11-16T12:38:35.996Z,73.4
2022-11-16T12:39:50.904Z,75.3
2022-11-16T12:41:05.851Z,77
2022-11-16T12:42:20.420Z,80.6
2022-11-16T12:43:33.053Z,78.1
2022-11-16T12:44:45.604Z,79.7
2022-11-16T12:45:55.936Z,82.5
2022-11-16T12:47:10.868Z,86.2
2022-11-16T12:48:23.576Z,92.1
2022-11-16T12:49:33.788Z,93.4
2022-11-16T12:50:44.884Z,92.6
2022-11-16T12:51:49.693Z,96.6
2022-11-16T12:52:59.233Z,97.7
2022-11-16T12:54:09.025Z,101.6
2022-11-16T12:55:27.070Z,104.8
2022-11-16T12:56:30.528Z,111.7
2022-11-16T12:57:45.252Z,107.6
2022-11-16T12:58:54.808Z,103.1
2022-11-16T13:00:09.597Z,101.2
2022-11-16T13:01:16.630Z,104.1
2022-11-16T13:02:30.342Z,96.7
2022-11-16T13:03:45.958Z,93
2022-11-16T13:04:53.745Z,93.2
2022-11-16T13:05:58.617Z,98.3
2022-11-16T13:07:07.947Z,97.5
2022-11-16T13:08:10.689Z,96.6
2022-11-16T13:09:23.408Z,82.7
2022-11-16T13:10:31.017Z,85.4
2022-11-16T13:11:36.180Z,81.1
2022-11-16T13:12:41.021Z,75.4
2022-11-16T13:13:49.855Z,78.7
2022-11-16T13:14:50.208Z,78.8
2022-11-16T13:15:54.688Z,74.4
2022-11-16T13:16:59.497Z,75.3
2022-11-16T13:18:03.800Z,70.4
2022-11-16T13:19:08.604Z,68.3
2022-11-16T13:20:14.634Z,66.2
2022-11-16T13:21:25.741Z,62.7
2022-11-16T13:22:35.825Z,61
2022-11-16T13:23:40.252Z,59.5
2022-11-16T13:24:44.712Z,57.1
2022-11-16T13:25:54.421Z,57.9
2022-11-16T13:26:59.261Z,55
2022-11-16T13:28:08.868Z,53.8
2022-11-16T13:29:21.469Z,51.1
2022-11-16T13:30:31.282Z,49.8
2022-11-16T13:31:35.710Z,51.1
2022-11-16T13:32:40.860Z,46.7
2022-11-16T13:33:51.403Z,46.5
2022-11-16T13:35:00.100Z,42.1
2022-11-16T13:36:14.153Z,43
2022-11-16T13:37:32.817Z,40.8
2022-11-16T13:38:37.665Z,38.7
2022-11-16T13:39:50.382Z,39.4
2022-11-16T13:40:58.601Z,38.5
2022-11-16T13:42:11.346Z,36.3
2022-11-16T13:43:15.989Z,37.4
2022-11-16T13:44:21.228Z,37.5
2022-11-16T13:45:25.802Z,36.2
2022-11-16T13:46:54.574Z,34
2022-11-16T13:47:47.064Z,35.2
2022-11-16T13:48:55.178Z,33.7
2022-11-16T13:50:00.243Z,32.8
2022-11-16T13:51:05.042Z,33.9
2022-11-16T13:52:24.946Z,33
2022-11-16T13:55:36.316Z,31.6
2022-11-16T13:56:41.258Z,30
2022-11-16T13:57:48.443Z,30.7
2022-11-16T13:58:52.820Z,30.7
2022-11-16T13:59:57.552Z,28.1
2022-11-16T14:01:02.436Z,28.9
2022-11-16T14:02:07.745Z,28.3
2022-11-16T14:03:22.912Z,29.8
2022-11-16T14:04:31.252Z,29.8
2022-11-16T14:05:36.992Z,37.3
2022-11-16T14:06:42.339Z,35.6
2022-11-16T14:07:47.036Z,32.1
2022-11-16T14:08:51.501Z,28.8
2022-11-16T14:09:56.600Z,31
2022-11-16T14:11:01.709Z,37.6
2022-11-16T14:12:06.328Z,34.8
2022-11-16T14:13:13.960Z,30.6
2022-11-16T14:14:28.745Z,27.7
2022-11-16T14:15:43.460Z,27.7
2022-11-16T14:16:48.278Z,27.5
2022-11-16T14:17:52.796Z,23.6
2022-11-16T14:18:57.343Z,24.6
2022-11-16T14:20:01.843Z,24.7
2022-11-16T14:21:06.357Z,24.6
2022-11-16T14:22:21.207Z,25.5
2022-11-16T14:23:25.899Z,19.3
2022-11-16T14:24:31.371Z,20.6
2022-11-16T14:25:41.289Z,18.6
2022-11-16T14:26:45.975Z,18
2022-11-16T14:27:53.472Z,18.5
2022-11-16T14:29:02.991Z,19.1
2022-11-16T14:30:07.688Z,20.8
2022-11-16T14:31:19.833Z,21
2022-11-16T14:32:27.172Z,19.3
2022-11-16T14:33:32.827Z,19.5
2022-11-16T14:34:37.475Z,18.9
2022-11-16T14:35:41.855Z,30.2
2022-11-16T14:36:46.275Z,50.7
2022-11-16T14:37:51.344Z,42.6
2022-11-16T14:39:03.879Z,46.6
2022-11-16T14:40:19.383Z,49.6
2022-11-16T14:41:24.235Z,31.9
2022-11-16T14:42:29.840Z,28.2
2022-11-16T14:43:34.746Z,29.2
2022-11-16T14:44:40.000Z,29.2
2022-11-16T14:45:45.615Z,28.3
2022-11-16T14:46:53.715Z,22.5
2022-11-16T14:47:59.267Z,22.3
2022-11-16T14:49:04.115Z,18.3
2022-11-16T14:50:08.845Z,16.1
2022-11-16T14:51:18.740Z,16.4
2022-11-16T14:52:23.052Z,13.9
2022-11-16T14:53:28.347Z,14.6
2022-11-16T14:54:33.770Z,16.8
2022-11-16T14:55:38.596Z,19.4
2022-11-16T14:56:46.283Z,23